createdAt,value
2018-12-03T00:01:29.877Z,10.20
2018-12-03T00:04:01.793Z,10.20
2018-12-03T00:06:30.332Z,10.10
2018-12-03T00:08:58.962Z,10.00
2018-12-03T00:11:27.491Z,10.00
2018-12-03T00:13:56.089Z,10.00
2018-12-03T00:16:24.741Z,10.00
2018-12-03T00:18:53.257Z,10.00
2018-12-03T00:21:21.803Z,10.00
2018-12-03T00:23:50.340Z,10.00
2018-12-03T00:26:18.903Z,10.00
2018-12-03T00:28:47.460Z,10.00
2018-12-03T00:31:15.974Z,9.90
2018-12-03T00:33:44.508Z,10.00
2018-12-03T00:36:13.128Z,9.90
2018-12-03T00:38:41.675Z,9.90
2018-12-03T00:41:10.231Z,9.90
2018-12-03T00:43:38.785Z,9.80
2018-12-03T00:46:07.338Z,9.90
2018-12-03T00:48:35.856Z,9.80
2018-12-03T00:51:04.435Z,9.80
2018-12-03T00:53:32.938Z,9.80
2018-12-03T00:56:01.510Z,9.80
2018-12-03T00:58:30.041Z,9.70
2018-12-03T01:00:58.684Z,9.60
2018-12-03T01:03:27.215Z,9.50
2018-12-03T01:05:55.752Z,9.50
2018-12-03T01:08:24.291Z,9.40
2018-12-03T01:10:52.870Z,9.50
2018-12-03T01:13:21.416Z,9.40
2018-12-03T01:15:49.952Z,9.40
2018-12-03T01:18:18.493Z,9.50
2018-12-03T01:20:47.038Z,9.50
2018-12-03T01:23:15.619Z,9.50
2018-12-03T01:25:44.141Z,9.40
2018-12-03T01:28:12.689Z,9.40
2018-12-03T01:30:41.244Z,9.40
2018-12-03T01:33:09.799Z,9.40
2018-12-03T01:35:38.362Z,9.40
2018-12-03T01:38:06.915Z,9.40
2018-12-03T01:40:35.508Z,9.30
2018-12-03T01:43:04.112Z,9.20
2018-12-03T01:45:32.683Z,9.20
2018-12-03T01:48:01.227Z,9.10
2018-12-03T01:50:29.756Z,9.10
2018-12-03T01:52:58.288Z,9.10
2018-12-03T01:55:26.819Z,9.10
2018-12-03T01:57:55.339Z,9.00
2018-12-03T02:00:23.893Z,9.00
2018-12-03T02:02:52.402Z,9.00
2018-12-03T02:05:20.983Z,9.00
2018-12-03T02:07:49.504Z,9.00
2018-12-03T02:10:18.042Z,9.00
2018-12-03T02:12:46.616Z,9.00
2018-12-03T02:15:16.243Z,8.90
2018-12-03T02:17:45.051Z,8.90
2018-12-03T02:20:15.598Z,8.90
2018-12-03T02:22:44.147Z,8.80
2018-12-03T02:25:12.940Z,8.80
2018-12-03T02:27:41.486Z,8.70
2018-12-03T02:30:17.072Z,8.70
2018-12-03T02:32:45.654Z,8.70
2018-12-03T02:35:14.809Z,8.70
2018-12-03T02:37:43.429Z,8.70
2018-12-03T02:40:16.589Z,8.80
2018-12-03T02:42:45.256Z,8.80
2018-12-03T02:45:14.443Z,8.80
2018-12-03T02:47:43.027Z,8.80
2018-12-03T02:50:13.523Z,8.80
2018-12-03T02:52:42.076Z,8.80
2018-12-03T02:55:11.690Z,8.80
2018-12-03T02:57:40.226Z,8.80
2018-12-03T03:00:13.378Z,8.80
2018-12-03T03:02:42.478Z,8.80
2018-12-03T03:05:12.114Z,8.90
2018-12-03T03:07:40.659Z,8.90
2018-12-03T03:10:12.275Z,8.90
2018-12-03T03:12:40.853Z,8.90
2018-12-03T03:15:10.643Z,8.90
2018-12-03T03:17:39.311Z,9.00
2018-12-03T03:20:12.619Z,8.90
2018-12-03T03:22:41.219Z,9.00
2018-12-03T03:25:10.499Z,9.00
2018-12-03T03:27:39.113Z,9.00
2018-12-03T03:30:10.698Z,9.00
2018-12-03T03:32:39.313Z,9.10
2018-12-03T03:35:08.914Z,9.10
2018-12-03T03:37:37.573Z,9.10
2018-12-03T03:40:09.580Z,9.20
2018-12-03T03:42:38.135Z,9.20
2018-12-03T03:45:11.898Z,9.30
2018-12-03T03:47:40.443Z,9.20
2018-12-03T03:50:09.296Z,9.20
2018-12-03T03:52:37.975Z,9.20
2018-12-03T03:55:07.211Z,9.20
2018-12-03T03:57:35.744Z,9.20
2018-12-03T04:00:05.290Z,9.20
2018-12-03T04:02:33.876Z,9.10
2018-12-03T04:05:02.446Z,9.00
2018-12-03T04:07:31.010Z,9.00
2018-12-03T04:09:59.519Z,9.00
2018-12-03T04:12:28.019Z,9.00
2018-12-03T04:14:56.543Z,8.90
2018-12-03T04:17:25.074Z,9.00
2018-12-03T04:19:53.619Z,8.90
2018-12-03T04:22:22.143Z,8.90
2018-12-03T04:24:50.679Z,8.90
2018-12-03T04:27:19.207Z,9.00
2018-12-03T04:29:47.751Z,9.00
2018-12-03T04:32:16.242Z,8.90
2018-12-03T04:34:44.760Z,8.90
2018-12-03T04:37:13.290Z,8.90
2018-12-03T04:39:41.829Z,8.90
2018-12-03T04:42:10.351Z,8.90
2018-12-03T04:44:38.898Z,8.80
2018-12-03T04:47:07.431Z,8.80
2018-12-03T04:49:35.933Z,8.70
2018-12-03T04:52:04.497Z,8.70
2018-12-03T04:54:33.023Z,8.70
2018-12-03T04:57:01.551Z,8.70
2018-12-03T04:59:30.064Z,8.70
2018-12-03T05:01:58.621Z,8.70
2018-12-03T05:04:27.159Z,8.80
2018-12-03T05:06:55.701Z,8.80
2018-12-03T05:09:24.255Z,8.70
2018-12-03T05:11:52.762Z,8.70
2018-12-03T05:14:21.283Z,8.60
2018-12-03T05:16:49.802Z,8.60
2018-12-03T05:19:18.358Z,8.50
2018-12-03T05:21:46.887Z,8.60
2018-12-03T05:24:15.426Z,8.50
2018-12-03T05:26:43.960Z,8.60
2018-12-03T05:29:12.471Z,8.50
2018-12-03T05:31:40.958Z,8.50
2018-12-03T05:34:09.445Z,8.40
2018-12-03T05:36:37.942Z,8.50
2018-12-03T05:39:08.703Z,8.50
2018-12-03T05:41:37.202Z,8.50
2018-12-03T05:44:05.744Z,8.40
2018-12-03T05:46:34.880Z,8.50
2018-12-03T05:49:02.807Z,8.40
2018-12-03T05:51:31.289Z,8.40
2018-12-03T05:53:59.787Z,8.40
2018-12-03T05:56:28.271Z,8.40
2018-12-03T05:58:56.778Z,8.40
2018-12-03T06:01:25.293Z,8.40
2018-12-03T06:03:53.819Z,8.40
2018-12-03T06:06:22.305Z,8.40
2018-12-03T06:08:50.795Z,8.40
2018-12-03T06:11:19.283Z,8.40
2018-12-03T06:13:47.775Z,8.40
2018-12-03T06:16:16.637Z,8.40
2018-12-03T06:18:45.151Z,8.30
2018-12-03T06:21:13.674Z,8.30
2018-12-03T06:23:42.151Z,8.30
2018-12-03T06:26:10.634Z,8.30
2018-12-03T06:28:39.120Z,8.20
2018-12-03T06:31:07.622Z,8.20
2018-12-03T06:33:36.131Z,8.20
2018-12-03T06:36:05.127Z,8.20
2018-12-03T06:38:33.623Z,8.10
2018-12-03T06:41:02.118Z,8.10
2018-12-03T06:43:30.635Z,7.90
2018-12-03T06:45:59.120Z,7.90
2018-12-03T06:48:27.623Z,8.00
2018-12-03T06:50:56.230Z,7.90
2018-12-03T06:53:24.763Z,7.90
2018-12-03T06:55:53.263Z,7.90
2018-12-03T06:58:21.751Z,7.90
2018-12-03T07:00:50.242Z,7.90
2018-12-03T07:03:18.743Z,7.90
2018-12-03T07:05:48.211Z,8.00
2018-12-03T07:08:16.984Z,8.00
2018-12-03T07:10:45.492Z,8.00
2018-12-03T07:13:19.054Z,8.10
2018-12-03T07:15:49.790Z,8.10
2018-12-03T07:18:18.364Z,8.10
2018-12-03T07:20:46.890Z,8.10
2018-12-03T07:23:15.409Z,8.10
2018-12-03T07:25:43.906Z,8.10
2018-12-03T07:28:12.427Z,8.10
2018-12-03T07:30:40.934Z,8.10
2018-12-03T07:33:09.428Z,8.10
2018-12-03T07:35:37.930Z,8.10
2018-12-03T07:38:06.474Z,8.20
2018-12-03T07:40:34.964Z,8.10
2018-12-03T07:43:03.464Z,8.20
2018-12-03T07:45:32.001Z,8.20
2018-12-03T07:48:00.507Z,8.30
2018-12-03T07:50:29.034Z,8.30
2018-12-03T07:52:57.548Z,8.30
2018-12-03T07:55:26.778Z,8.40
2018-12-03T07:58:06.000Z,8.40
2018-12-03T08:00:38.549Z,8.60
2018-12-03T08:03:07.579Z,8.80
2018-12-03T08:05:36.079Z,8.90
2018-12-03T08:08:04.994Z,9.10
2018-12-03T08:10:33.503Z,9.20
2018-12-03T08:13:01.989Z,9.30
2018-12-03T08:15:30.495Z,9.50
2018-12-03T08:18:00.780Z,9.60
2018-12-03T08:20:32.542Z,9.80
2018-12-03T08:23:06.274Z,9.90
2018-12-03T08:25:35.023Z,10.00
2018-12-03T08:28:03.966Z,10.20
2018-12-03T08:30:32.499Z,9.70
2018-12-03T08:33:01.015Z,10.30
2018-12-03T08:35:30.361Z,10.30
2018-12-03T08:38:03.390Z,10.40
2018-12-03T08:40:28.154Z,10.50
2018-12-03T08:42:57.454Z,10.60
2018-12-03T08:45:26.330Z,10.70
2018-12-03T08:47:56.702Z,10.70
2018-12-03T08:50:27.723Z,10.80
2018-12-03T08:52:57.595Z,10.90
2018-12-03T08:55:26.271Z,10.90
2018-12-03T08:57:55.760Z,11.10
2018-12-03T09:00:27.583Z,10.90
2018-12-03T09:03:00.394Z,11.20
2018-12-03T09:05:32.406Z,11.30
2018-12-03T09:08:00.975Z,11.40
2018-12-03T09:10:31.814Z,11.40
2018-12-03T09:13:09.382Z,11.50
2018-12-03T09:15:37.967Z,11.60
2018-12-03T09:18:06.559Z,11.60
2018-12-03T09:20:35.087Z,11.60
2018-12-03T09:23:04.122Z,11.70
2018-12-03T09:25:32.683Z,11.70
2018-12-03T09:28:01.286Z,11.70
2018-12-03T09:30:30.437Z,11.70
2018-12-03T09:32:59.265Z,11.70
2018-12-03T09:35:28.546Z,11.80
2018-12-03T09:37:58.090Z,11.80
2018-12-03T09:40:29.015Z,11.80
2018-12-03T09:42:59.780Z,11.90
2018-12-03T09:45:31.355Z,12.00
2018-12-03T09:48:00.719Z,12.20
2018-12-03T09:50:29.454Z,12.30
2018-12-03T09:52:58.618Z,12.40
2018-12-03T09:55:30.087Z,12.60
2018-12-03T09:58:00.172Z,12.80
2018-12-03T10:00:29.307Z,13.10
2018-12-03T10:02:59.855Z,13.40
2018-12-03T10:05:31.159Z,13.70
2018-12-03T10:07:59.774Z,13.90
2018-12-03T10:10:29.311Z,14.00
2018-12-03T10:13:04.490Z,14.20
2018-12-03T10:15:33.134Z,14.40
2018-12-03T10:18:01.648Z,14.60
2018-12-03T10:20:30.179Z,14.70
2018-12-03T10:23:01.138Z,14.80
2018-12-03T10:25:29.693Z,14.90
2018-12-03T10:28:01.115Z,15.00
2018-12-03T10:30:29.846Z,15.10
2018-12-03T10:32:58.375Z,15.20
2018-12-03T10:35:38.687Z,15.20
2018-12-03T10:38:19.555Z,15.20
2018-12-03T10:40:55.583Z,15.30
2018-12-03T10:43:24.224Z,15.50
2018-12-03T10:45:52.822Z,15.70
2018-12-03T10:48:21.349Z,15.80
2018-12-03T10:50:49.955Z,15.80
2018-12-03T10:53:23.319Z,15.90
2018-12-03T10:55:52.025Z,15.80
2018-12-03T10:58:20.619Z,15.90
2018-12-03T11:00:54.702Z,16.00
2018-12-03T11:03:59.782Z,16.10
2018-12-03T11:06:28.378Z,16.40
2018-12-03T11:08:56.983Z,16.60
2018-12-03T11:11:25.642Z,16.80
2018-12-03T11:13:54.382Z,16.80
2018-12-03T11:16:27.356Z,16.80
2018-12-03T11:18:56.489Z,16.80
2018-12-03T11:21:26.013Z,16.80
2018-12-03T11:23:54.561Z,16.80
2018-12-03T11:26:28.179Z,16.80
2018-12-03T11:28:56.812Z,16.80
2018-12-03T11:31:30.878Z,16.80
2018-12-03T11:33:59.453Z,16.70
2018-12-03T11:36:35.175Z,16.70
2018-12-03T11:39:15.859Z,16.70
2018-12-03T11:41:44.403Z,16.70
2018-12-03T11:44:12.955Z,16.60
2018-12-03T11:46:41.553Z,16.60
2018-12-03T11:49:10.128Z,16.60
2018-12-03T11:51:38.695Z,16.70
2018-12-03T11:54:07.216Z,16.70
2018-12-03T11:56:35.787Z,16.70
2018-12-03T11:59:04.399Z,16.80
2018-12-03T12:01:32.926Z,16.70
2018-12-03T12:04:01.436Z,16.70
2018-12-03T12:06:29.983Z,16.70
2018-12-03T12:08:58.536Z,16.70
2018-12-03T12:11:27.041Z,16.60
2018-12-03T12:13:55.578Z,16.60
2018-12-03T12:16:24.116Z,16.60
2018-12-03T12:18:52.648Z,16.60
2018-12-03T12:21:21.223Z,16.60
2018-12-03T12:23:49.772Z,16.70
2018-12-03T12:26:18.295Z,16.70
2018-12-03T12:28:46.802Z,16.70
2018-12-03T12:31:15.323Z,16.70
2018-12-03T12:33:43.883Z,16.70
2018-12-03T12:36:12.443Z,16.70
2018-12-03T12:38:41.016Z,16.80
2018-12-03T12:41:09.550Z,16.90
2018-12-03T12:43:38.071Z,16.90
2018-12-03T12:46:09.251Z,16.90
2018-12-03T12:48:37.770Z,17.00
2018-12-03T12:51:06.395Z,17.00
2018-12-03T12:53:34.914Z,17.10
2018-12-03T12:56:03.463Z,17.10
2018-12-03T12:58:31.980Z,17.10
2018-12-03T13:01:00.508Z,17.10
2018-12-03T13:03:29.067Z,17.10
2018-12-03T13:05:57.605Z,17.10
2018-12-03T13:08:26.145Z,17.10
2018-12-03T13:10:54.674Z,17.10
2018-12-03T13:13:23.198Z,17.00
2018-12-03T13:15:51.759Z,17.00
2018-12-03T13:18:20.287Z,17.00
2018-12-03T13:20:49.178Z,17.00
2018-12-03T13:23:17.708Z,17.00
2018-12-03T13:25:46.218Z,17.00
2018-12-03T13:28:14.767Z,17.00
2018-12-03T13:30:43.303Z,17.00
2018-12-03T13:33:11.889Z,17.10
2018-12-03T13:35:40.419Z,17.10
2018-12-03T13:38:08.951Z,17.20
2018-12-03T13:40:38.570Z,17.20
2018-12-03T13:43:07.120Z,17.20
2018-12-03T13:45:35.683Z,17.20
2018-12-03T13:48:04.237Z,17.20
2018-12-03T13:50:32.748Z,17.20
2018-12-03T13:53:01.259Z,17.20
2018-12-03T13:55:29.791Z,17.10
2018-12-03T13:57:58.513Z,17.10
2018-12-03T14:00:27.404Z,17.00
2018-12-03T14:03:08.908Z,17.00
2018-12-03T14:06:06.212Z,17.00
2018-12-03T14:10:49.252Z,16.90
2018-12-03T14:14:30.838Z,16.80
2018-12-03T14:17:10.134Z,16.70
2018-12-03T14:19:39.563Z,16.70
2018-12-03T14:22:27.919Z,16.60
2018-12-03T14:24:56.647Z,16.70
2018-12-03T14:27:25.311Z,16.70
2018-12-03T14:29:54.055Z,16.70
2018-12-03T14:32:22.791Z,16.70
2018-12-03T14:34:51.463Z,16.80
2018-12-03T14:37:20.206Z,16.80
2018-12-03T14:39:48.882Z,16.80
2018-12-03T14:42:17.621Z,16.90
2018-12-03T14:44:46.272Z,16.90
2018-12-03T14:47:14.986Z,16.90
2018-12-03T14:49:43.662Z,16.90
2018-12-03T14:52:12.346Z,16.90
2018-12-03T14:54:41.063Z,16.90
2018-12-03T14:57:09.771Z,16.90
2018-12-03T14:59:38.439Z,16.90
2018-12-03T15:02:07.164Z,16.90
2018-12-03T15:04:35.903Z,16.90
2018-12-03T15:07:04.591Z,16.80
2018-12-03T15:09:33.256Z,16.80
2018-12-03T15:12:01.963Z,16.80
2018-12-03T15:14:30.659Z,16.70
2018-12-03T15:16:59.348Z,16.70
2018-12-03T15:19:28.071Z,16.70
2018-12-03T15:21:56.759Z,16.60
2018-12-03T15:24:25.467Z,16.60
2018-12-03T15:26:54.163Z,16.50
2018-12-03T15:29:22.887Z,16.50
2018-12-03T15:31:51.606Z,16.50
2018-12-03T15:34:20.316Z,16.50
2018-12-03T15:36:48.979Z,16.50
2018-12-03T15:39:17.661Z,16.40
2018-12-03T15:41:46.347Z,16.40
2018-12-03T15:44:15.031Z,16.40
2018-12-03T15:46:43.708Z,16.30
2018-12-03T15:49:12.452Z,16.30
2018-12-03T15:51:41.161Z,16.20
2018-12-03T15:54:09.824Z,16.20
2018-12-03T15:56:38.479Z,16.20
2018-12-03T15:59:07.156Z,16.10
2018-12-03T16:01:35.852Z,16.10
2018-12-03T16:04:04.544Z,16.10
2018-12-03T16:06:33.356Z,16.00
2018-12-03T16:09:02.167Z,16.00
2018-12-03T16:11:30.865Z,15.90
2018-12-03T16:13:59.575Z,15.90
2018-12-03T16:16:28.268Z,15.90
2018-12-03T16:18:56.920Z,15.80
2018-12-03T16:21:25.592Z,15.80
2018-12-03T16:23:54.281Z,15.80
2018-12-03T16:26:22.960Z,15.70
2018-12-03T16:28:51.643Z,15.70
2018-12-03T16:31:20.334Z,15.70
2018-12-03T16:33:49.014Z,15.70
2018-12-03T16:36:17.738Z,15.60
2018-12-03T16:38:46.413Z,15.70
2018-12-03T16:41:15.112Z,15.60
2018-12-03T16:43:43.803Z,15.60
2018-12-03T16:46:12.496Z,15.50
2018-12-03T16:48:41.184Z,15.50
2018-12-03T16:51:09.876Z,15.50
2018-12-03T16:53:39.280Z,15.50
2018-12-03T16:56:07.976Z,15.40
2018-12-03T16:58:36.667Z,15.50
2018-12-03T17:01:05.398Z,15.40
2018-12-03T17:03:34.148Z,15.40
2018-12-03T17:06:02.903Z,15.40
2018-12-03T17:08:31.584Z,15.40
2018-12-03T17:11:00.288Z,15.40
2018-12-03T17:13:28.956Z,15.40
2018-12-03T17:15:57.637Z,15.50
2018-12-03T17:18:26.300Z,15.50
2018-12-03T17:21:07.844Z,15.40
2018-12-03T17:24:15.533Z,15.40
2018-12-03T17:26:44.244Z,15.30
2018-12-03T17:29:12.941Z,15.30
2018-12-03T17:31:41.752Z,15.20
2018-12-03T17:34:10.454Z,15.20
2018-12-03T17:36:39.157Z,15.20
2018-12-03T17:39:08.778Z,15.20
2018-12-03T17:41:37.574Z,15.10
2018-12-03T17:44:07.536Z,15.10
2018-12-03T17:46:36.287Z,15.10
2018-12-03T17:49:04.968Z,15.10
2018-12-03T17:51:33.648Z,15.00
2018-12-03T17:54:02.351Z,14.90
2018-12-03T17:56:31.064Z,14.90
2018-12-03T17:58:59.799Z,14.90
2018-12-03T18:01:28.487Z,14.90
2018-12-03T18:03:57.167Z,14.90
2018-12-03T18:06:25.834Z,14.80
2018-12-03T18:08:54.513Z,14.80
2018-12-03T18:11:23.226Z,14.80
2018-12-03T18:13:51.967Z,14.80
2018-12-03T18:16:20.676Z,14.90
2018-12-03T18:18:49.384Z,14.90
2018-12-03T18:21:18.064Z,14.90
2018-12-03T18:23:46.784Z,14.90
2018-12-03T18:26:15.478Z,14.90
2018-12-03T18:28:44.216Z,14.90
2018-12-03T18:31:12.911Z,14.90
2018-12-03T18:33:41.608Z,14.90
2018-12-03T18:36:10.309Z,14.90
2018-12-03T18:38:39.012Z,14.90
2018-12-03T18:41:07.699Z,14.80
2018-12-03T18:43:36.380Z,14.80
2018-12-03T18:46:05.072Z,14.70
2018-12-03T18:48:34.127Z,14.70
2018-12-03T18:51:02.835Z,14.70
2018-12-03T18:53:31.837Z,14.70
2018-12-03T18:56:00.516Z,14.70
2018-12-03T18:58:36.527Z,14.60
2018-12-03T19:01:05.324Z,14.60
2018-12-03T19:03:34.112Z,14.50
2018-12-03T19:06:03.848Z,14.50
2018-12-03T19:08:32.588Z,14.50
2018-12-03T19:11:01.244Z,14.50
2018-12-03T19:13:29.916Z,14.50
2018-12-03T19:15:58.639Z,14.50
2018-12-03T19:18:27.326Z,14.50
2018-12-03T19:20:56.009Z,14.50
2018-12-03T19:23:24.696Z,14.60
2018-12-03T19:25:53.623Z,14.60
2018-12-03T19:28:22.283Z,14.70
2018-12-03T19:30:50.965Z,14.70
2018-12-03T19:33:19.624Z,14.70
2018-12-03T19:35:48.304Z,14.90
2018-12-03T19:38:16.991Z,14.90
2018-12-03T19:40:45.657Z,15.10
2018-12-03T19:43:14.369Z,15.20
2018-12-03T19:45:43.211Z,15.30
2018-12-03T19:48:11.885Z,15.30
2018-12-03T19:50:40.584Z,15.40
2018-12-03T19:53:09.236Z,15.50
2018-12-03T19:55:38.560Z,15.50
2018-12-03T19:58:20.769Z,15.80
2018-12-03T20:00:50.040Z,15.70
2018-12-03T20:03:18.763Z,15.70
2018-12-03T20:05:47.472Z,15.80
2018-12-03T20:08:16.179Z,15.80
2018-12-03T20:10:44.860Z,15.80
2018-12-03T20:13:13.676Z,15.90
2018-12-03T20:15:42.325Z,15.90
2018-12-03T20:18:11.055Z,15.90
2018-12-03T20:20:48.144Z,16.00
2018-12-03T20:23:24.495Z,16.00
2018-12-03T20:26:01.620Z,16.00
2018-12-03T20:28:41.731Z,16.00
2018-12-03T20:31:20.328Z,16.00
2018-12-03T20:38:02.851Z,16.00
2018-12-03T20:40:46.383Z,16.30
2018-12-03T20:43:20.896Z,16.00
2018-12-03T20:46:34.068Z,16.10
2018-12-03T20:49:16.331Z,16.10
2018-12-03T20:51:45.877Z,16.10
2018-12-03T20:54:14.593Z,16.20
2018-12-03T20:56:43.280Z,16.20
2018-12-03T20:59:11.964Z,16.30
2018-12-03T21:02:41.535Z,16.30
2018-12-03T21:05:10.297Z,16.50
2018-12-03T21:07:38.953Z,16.50
2018-12-03T21:10:08.036Z,16.40
2018-12-03T21:12:36.740Z,16.40
2018-12-03T21:15:05.857Z,16.30
2018-12-03T21:17:34.504Z,16.30
2018-12-03T21:20:23.648Z,16.20
2018-12-03T21:22:52.628Z,16.20
2018-12-03T21:25:21.368Z,16.20
2018-12-03T21:27:50.104Z,16.20
2018-12-03T21:30:18.723Z,16.10
2018-12-03T21:32:47.367Z,16.20
2018-12-03T21:35:16.080Z,16.20
2018-12-03T21:37:44.747Z,16.10
2018-12-03T21:40:13.391Z,16.10
2018-12-03T21:42:42.032Z,16.10
2018-12-03T21:45:10.718Z,16.00
2018-12-03T21:47:39.335Z,15.90
2018-12-03T21:50:08.022Z,15.80
2018-12-03T21:52:36.667Z,15.70
2018-12-03T21:55:06.381Z,15.60
2018-12-03T21:57:35.056Z,15.60
2018-12-03T22:00:03.879Z,15.50
2018-12-03T22:02:32.537Z,15.50
2018-12-03T22:05:04.485Z,15.50
2018-12-03T22:07:33.151Z,15.40
2018-12-03T22:10:01.811Z,15.40
2018-12-03T22:12:30.454Z,15.30
2018-12-03T22:14:59.192Z,15.20
2018-12-03T22:17:27.831Z,15.20
2018-12-03T22:19:56.440Z,15.20
2018-12-03T22:22:25.103Z,15.20
2018-12-03T22:24:53.771Z,15.20
2018-12-03T22:27:22.433Z,15.20
2018-12-03T22:29:51.080Z,15.20
2018-12-03T22:32:19.722Z,15.20
2018-12-03T22:34:48.350Z,15.20
2018-12-03T22:37:16.968Z,15.30
2018-12-03T22:39:46.554Z,15.20
2018-12-03T22:42:15.315Z,15.20
2018-12-03T22:44:43.944Z,15.20
2018-12-03T22:47:12.568Z,15.10
2018-12-03T22:49:41.191Z,15.10
2018-12-03T22:52:09.823Z,15.10
2018-12-03T22:54:38.517Z,15.00
2018-12-03T22:57:07.180Z,14.90
2018-12-03T22:59:35.828Z,14.90
2018-12-03T23:02:04.576Z,14.80
2018-12-03T23:04:37.628Z,14.80
2018-12-03T23:07:06.308Z,14.70
2018-12-03T23:09:34.947Z,14.50
2018-12-03T23:12:03.665Z,14.50
2018-12-03T23:14:32.357Z,14.40
2018-12-03T23:17:01.048Z,14.40
2018-12-03T23:19:29.681Z,14.20
2018-12-03T23:21:58.364Z,14.20
2018-12-03T23:24:27.102Z,14.20
2018-12-03T23:26:55.744Z,14.10
2018-12-03T23:29:24.404Z,14.00
2018-12-03T23:31:53.061Z,13.90
2018-12-03T23:34:21.708Z,13.90
2018-12-03T23:36:50.381Z,13.80
2018-12-03T23:39:19.032Z,13.60
2018-12-03T23:41:47.683Z,13.60
2018-12-03T23:44:16.329Z,13.60
2018-12-03T23:46:44.982Z,13.50
2018-12-03T23:49:13.700Z,13.40
2018-12-03T23:51:42.348Z,13.40
2018-12-03T23:54:10.994Z,13.30
2018-12-03T23:56:39.634Z,13.20
2018-12-03T23:59:08.284Z,13.20
